Mc Connell Air Force Base
KIAB : now visible

Aeroporto :











RITROVATECI SU...

 
LOGIN :

Iscrizione | Disclaimer

   EN    FR    IT 

 









Sommario :    VFR   VFR Marginale   IFR   IFR Intensivo   IFR Molto Intensivo
Visibilità : 
Base nubi : 
>= 8 km
>= 3000ft
5 / 8 km
1000 / 3000 ft
1500m / 5 km
500 / 1000 ft
800 / 1500m
200 / 500 ft
< 800m
< 200 ft
Simboli :   Temporali  Nebbia  Neve Forte  Precipitazioni Forti  Vento > 20 kt







- Altitudine del aeroporto : 1371 ft
- Codice IATA : IAB


KIAB - Mc Connell Air Force Base

ULTIMO METAR :
  • 240456Z AUTO 12015G25KT 10SM FEW075 SCT160 24/19 A2993 RMK AO2 SLP128 T02390192 $

METARs OBSOLETI :
  • 240356Z AUTO 12012KT 10SM OVC075 24/19 A2994 RMK AO2 SLP132 T02380191 $
  • 240256Z AUTO 12014KT 10SM CLR 24/19 A2991 RMK AO2 SLP121 T02410194 53008 $

TAF TAF KIAB
Valido dal 24 a 02 ore il 25 a 08 ore UTC


240200Z 2402/2508 14012G18KT 9999 SCT030 BKN070 QNH2986INS
BECMG 2409/2410 18012G18KT 8000 -SHRA VCTS BKN010 OVC020CB QNH2988INS
TEMPO 2410/2415 18025G42KT 1000 -TSRA BKN002CB
BECMG 2415/2416 20012G22KT 6000 -SHRA VCTS OVC020CB QNH2991INS
TEMPO 2420/2501 19025G38KT 1000 -TSRA OVC002CB
BECMG 2501/2502 20012G22KT 9999 NSW SCT030 QNH2989INS TX25/2421Z TN20/2412Z LAST NO AMDS AFT 2402 NEXT 2417
FIR KZKC / America del Nord



MetMap, La meteo Aeronautica in un colpo d'occhio ! - Copyright ORBIFLY Dicembre 2007 - Disclaimer

ORBIFLY MET'MAP TEAM :

Programmazione e sviluppo : Alexandra Zaïnal
Concezione e sviluppo : Baudouin d'Aumeries
Co-Programmazione e sviluppo : Marc-Olivier Méhu
Supporto tecnico e logistico : Manuel Goepfert
Aiuto per la traduzione : Arnaldo La Scala

Contatto : metmap@orbifly.com




FONTI E CREDITI :

   NOAA       Earth
Advisory